< < Back
Terminal Aerodrome Forecast


Current Version              Previous Versions:   1  2  3  4  5  6  7  8  9  

Terminal Aerodrome Forecast

005
FTUS44 KMRX 141945 AAA
TAFTYS
TAF AMD
KTYS 141945Z 1420/1518 VRB05KT P6SM BKN030 BKN050
     FM142100 34004KT P6SM SCT015 BKN050
     FM150800 00000KT 5SM BR BKN035
     FM151400 23006KT P6SM BKN050=

Latest METAR

017
SAUS80 KWBC 150400 RRA
MTRTYS
METAR KTYS 150353Z 00000KT 8SM FEW100 19/18 A3018 RMK AO2 SLP213
T01890183


USA.gov is the U.S. government's official web portal to all federal, state and local government web resources and services.